Time;durP1;ratioP1;P1;durP2;ratioP2;P2;SDS_P1;SDS_P2;PMS_P1;PMS_P2;Temp;Humidity;BMP_temperature;BMP_pressure;BME280_temperature;BME280_humidity;BME280_pressure;Samples;Min_cycle;Max_cycle;Signal;HPM_P1;HPM_P2
2022/05/18 00:00:49;;;;;;;12.52;6.72;;;18.40;99.90;;;;;;5045159;28;21081;-64
2022/05/18 00:03:20;;;;;;;10.95;6.82;;;18.40;99.90;;;;;;5043185;28;20048;-64
2022/05/18 00:05:46;;;;;;;16.60;7.40;;;18.40;99.90;;;;;;5040614;28;20052;-64
2022/05/18 00:08:13;;;;;;;14.85;7.03;;;18.30;99.90;;;;;;5047947;28;20098;-64
2022/05/18 00:10:41;;;;;;;11.20;6.85;;;18.30;99.90;;;;;;5043979;28;21252;-64
2022/05/18 00:13:08;;;;;;;17.35;7.43;;;18.30;99.90;;;;;;5035893;28;20440;-64
2022/05/18 00:15:34;;;;;;;13.85;8.05;;;18.20;99.90;;;;;;5047275;28;20090;-64
2022/05/18 00:18:00;;;;;;;12.27;7.28;;;18.20;99.90;;;;;;5044559;28;20082;-64
2022/05/18 00:20:27;;;;;;;12.55;7.03;;;18.20;99.90;;;;;;5029618;28;20438;-64
2022/05/18 00:22:56;;;;;;;11.73;7.03;;;18.10;99.90;;;;;;5024481;28;20051;-64
2022/05/18 00:25:25;;;;;;;12.93;7.05;;;18.10;99.90;;;;;;5041792;28;20048;-63
2022/05/18 00:27:51;;;;;;;11.73;7.70;;;18.10;99.90;;;;;;5033082;28;20044;-64
2022/05/18 00:30:19;;;;;;;10.05;6.90;;;18.10;99.90;;;;;;5034521;28;20102;-64
2022/05/18 00:32:44;;;;;;;14.70;7.07;;;18.00;99.90;;;;;;5035383;28;20056;-64
2022/05/18 00:35:12;;;;;;;12.95;6.40;;;18.00;99.90;;;;;;5040024;28;20502;-64
2022/05/18 00:37:39;;;;;;;14.55;7.28;;;18.00;99.90;;;;;;5054495;28;20051;-64
2022/05/18 00:40:07;;;;;;;10.35;6.35;;;18.00;99.90;;;;;;5049362;28;20102;-65
2022/05/18 00:42:33;;;;;;;10.35;6.22;;;18.00;99.90;;;;;;5051462;28;20590;-64
2022/05/18 00:45:08;;;;;;;10.82;6.35;;;18.00;99.90;;;;;;5029047;28;20048;-64
2022/05/18 00:47:34;;;;;;;9.25;5.95;;;17.90;99.90;;;;;;5050635;28;20056;-64
2022/05/18 00:50:18;;;;;;;8.73;5.70;;;17.90;99.90;;;;;;5055212;28;20043;-64
2022/05/18 00:53:00;;;;;;;10.70;5.40;;;17.90;99.90;;;;;;5048868;28;20044;-64
2022/05/18 00:55:29;;;;;;;13.05;6.03;;;17.90;99.90;;;;;;5053123;28;20137;-64
2022/05/18 00:58:10;;;;;;;11.13;5.28;;;17.90;99.90;;;;;;5050909;28;20379;-65
2022/05/18 01:00:38;;;;;;;9.20;6.20;;;17.90;99.90;;;;;;5039639;28;20414;-64
2022/05/18 01:03:13;;;;;;;10.88;5.90;;;17.80;99.90;;;;;;5018115;28;20048;-64
2022/05/18 01:05:48;;;;;;;10.27;5.78;;;17.80;99.90;;;;;;5048155;28;20048;-65
2022/05/18 01:08:22;;;;;;;11.18;5.70;;;17.80;99.90;;;;;;5015787;28;20051;-64
2022/05/18 01:10:48;;;;;;;9.38;5.60;;;17.80;99.90;;;;;;5050539;28;20440;-64
2022/05/18 01:13:14;;;;;;;12.20;5.97;;;17.80;99.90;;;;;;5049276;28;20067;-64
2022/05/18 01:15:40;;;;;;;11.75;5.63;;;17.80;99.90;;;;;;5039790;28;20048;-64
2022/05/18 01:18:08;;;;;;;14.13;6.03;;;17.70;99.90;;;;;;5047843;28;20501;-63
2022/05/18 01:20:37;;;;;;;10.93;5.63;;;17.80;99.90;;;;;;5049145;28;20044;-64
2022/05/18 01:23:26;;;;;;;9.52;5.68;;;17.70;99.90;;;;;;5025638;28;20059;-64
2022/05/18 01:26:29;;;;;;;10.95;5.88;;;17.70;99.90;;;;;;5046082;28;20210;-63
2022/05/18 01:29:01;;;;;;;9.35;5.45;;;17.70;99.90;;;;;;5045932;28;20056;-64
2022/05/18 01:31:45;;;;;;;8.03;5.47;;;17.70;99.90;;;;;;5038566;28;20239;-63
2022/05/18 01:34:12;;;;;;;9.38;5.25;;;17.60;99.90;;;;;;5047481;28;20302;-63
2022/05/18 01:36:38;;;;;;;10.38;5.80;;;17.60;99.90;;;;;;5037891;28;20061;-64
2022/05/18 01:39:08;;;;;;;10.75;5.55;;;17.60;99.90;;;;;;5055086;28;20932;-63
2022/05/18 01:41:43;;;;;;;8.90;5.68;;;17.60;99.90;;;;;;5032129;28;20055;-64
2022/05/18 01:44:09;;;;;;;6.72;5.13;;;17.60;99.90;;;;;;5050704;28;20088;-63
2022/05/18 01:46:35;;;;;;;9.65;5.68;;;17.60;99.90;;;;;;5048090;28;20087;-64
2022/05/18 01:49:01;;;;;;;9.25;5.50;;;17.60;99.90;;;;;;5023324;28;20139;-64
2022/05/18 01:51:39;;;;;;;7.03;5.53;;;17.60;99.90;;;;;;5045725;28;20807;-64
2022/05/18 01:54:05;;;;;;;12.23;5.45;;;17.60;99.90;;;;;;5055751;28;20041;-64
2022/05/18 01:56:32;;;;;;;8.88;5.30;;;17.50;99.90;;;;;;5050905;28;20036;-64
2022/05/18 01:58:58;;;;;;;9.32;5.53;;;17.50;99.90;;;;;;5056977;28;20207;-64
2022/05/18 02:01:23;;;;;;;10.13;6.03;;;17.50;99.90;;;;;;5046410;28;20222;-64
2022/05/18 02:03:50;;;;;;;12.63;5.40;;;17.50;99.90;;;;;;5046730;28;20071;-63
2022/05/18 02:06:16;;;;;;;10.38;5.45;;;17.50;99.90;;;;;;5052795;28;20057;-65
2022/05/18 02:08:42;;;;;;;13.07;5.50;;;17.50;99.90;;;;;;5056717;28;20044;-65
2022/05/18 02:11:18;;;;;;;7.95;5.00;;;17.40;99.90;;;;;;5043291;28;20115;-65
2022/05/18 02:13:44;;;;;;;7.65;4.90;;;17.40;99.90;;;;;;5049935;28;20040;-64
2022/05/18 02:16:11;;;;;;;10.02;5.03;;;17.40;99.90;;;;;;5039922;28;20052;-65
2022/05/18 02:18:37;;;;;;;10.60;5.40;;;17.40;99.90;;;;;;5049131;28;20048;-64
2022/05/18 02:21:09;;;;;;;8.00;4.85;;;17.40;99.90;;;;;;5048507;28;20402;-64
2022/05/18 02:23:35;;;;;;;6.80;5.45;;;17.40;99.90;;;;;;5041590;28;20048;-64
2022/05/18 02:26:09;;;;;;;6.97;5.30;;;17.40;99.90;;;;;;5059159;28;20133;-64
2022/05/18 02:28:35;;;;;;;7.50;5.35;;;17.40;99.90;;;;;;5048345;28;20045;-65
2022/05/18 02:31:01;;;;;;;8.98;5.40;;;17.40;99.90;;;;;;5049133;28;20044;-64
2022/05/18 02:33:27;;;;;;;10.15;5.32;;;17.40;99.90;;;;;;5035414;28;20501;-64
2022/05/18 02:35:53;;;;;;;12.02;5.93;;;17.30;99.90;;;;;;5046849;28;20067;-64
2022/05/18 02:38:19;;;;;;;10.30;5.10;;;17.30;99.90;;;;;;5040352;28;20044;-64
2022/05/18 02:40:44;;;;;;;11.35;5.70;;;17.30;99.90;;;;;;5042297;28;20048;-65
2022/05/18 02:43:10;;;;;;;8.57;5.30;;;17.30;99.90;;;;;;5022720;28;20173;-65
2022/05/18 02:45:36;;;;;;;9.13;5.35;;;17.30;99.90;;;;;;5049254;28;20474;-65
2022/05/18 02:48:02;;;;;;;12.13;5.15;;;17.30;99.90;;;;;;5047437;28;20071;-65
2022/05/18 02:50:28;;;;;;;10.07;5.47;;;17.20;99.90;;;;;;5047914;28;20049;-63
2022/05/18 02:52:54;;;;;;;7.47;5.15;;;17.20;99.90;;;;;;5053763;28;20098;-64
2022/05/18 02:58:06;;;;;;;9.48;5.40;;;17.20;99.90;;;;;;5032351;28;20048;-64
2022/05/18 03:00:32;;;;;;;9.27;5.57;;;17.10;99.90;;;;;;5036193;28;20060;-65
2022/05/18 03:02:58;;;;;;;9.35;5.75;;;17.10;99.90;;;;;;5048989;28;20444;-64
2022/05/18 03:05:24;;;;;;;8.38;5.75;;;17.10;99.90;;;;;;5019717;28;20055;-64
2022/05/18 03:07:50;;;;;;;8.93;6.00;;;17.10;99.90;;;;;;5051191;28;20044;-63
2022/05/18 03:10:18;;;;;;;10.50;5.60;;;17.10;99.90;;;;;;5044666;28;20051;-63
2022/05/18 03:12:44;;;;;;;9.18;5.70;;;17.10;99.90;;;;;;5050416;28;20044;-64
2022/05/18 03:15:12;;;;;;;11.65;5.90;;;17.00;99.90;;;;;;5054101;28;20510;-64
2022/05/18 03:17:39;;;;;;;9.55;5.55;;;17.00;99.90;;;;;;5052295;28;20052;-64
2022/05/18 03:20:06;;;;;;;12.10;5.65;;;17.00;99.90;;;;;;5048996;28;20048;-64
2022/05/18 03:25:18;;;;;;;9.32;5.90;;;17.00;99.90;;;;;;5051411;28;20576;-63
2022/05/18 03:27:44;;;;;;;12.50;5.80;;;17.00;99.90;;;;;;5039114;28;20044;-64
2022/05/18 03:30:12;;;;;;;10.77;5.95;;;17.00;99.90;;;;;;5068743;28;20041;-64
2022/05/18 03:32:39;;;;;;;8.95;5.47;;;16.90;99.90;;;;;;5017859;28;20139;-65
2022/05/18 03:35:07;;;;;;;10.13;5.63;;;17.00;99.90;;;;;;5056660;28;20588;-65
2022/05/18 03:37:33;;;;;;;7.53;5.38;;;17.00;99.90;;;;;;5043329;28;20061;-64
2022/05/18 03:39:59;;;;;;;10.02;5.72;;;16.90;99.90;;;;;;5021845;28;20052;-64
2022/05/18 03:42:26;;;;;;;7.93;5.88;;;16.90;99.90;;;;;;5018930;28;20056;-64
2022/05/18 03:44:52;;;;;;;13.70;5.40;;;16.90;99.90;;;;;;5051021;28;20048;-64
2022/05/18 03:47:18;;;;;;;9.13;6.00;;;16.90;99.90;;;;;;5020536;28;20053;-64
2022/05/18 03:49:44;;;;;;;10.15;5.70;;;16.80;99.90;;;;;;5028022;28;20828;-64
2022/05/18 03:52:10;;;;;;;11.25;5.63;;;16.90;99.90;;;;;;5049187;28;20554;-64
2022/05/18 03:54:36;;;;;;;7.47;5.78;;;16.80;99.90;;;;;;5028913;28;20045;-64
2022/05/18 03:57:03;;;;;;;10.75;6.20;;;16.80;99.90;;;;;;5062972;28;20495;-64
2022/05/18 03:59:28;;;;;;;8.73;6.20;;;16.80;99.90;;;;;;5053369;28;20139;-63
2022/05/18 04:01:54;;;;;;;12.50;6.22;;;16.80;99.90;;;;;;5026368;28;20052;-64
2022/05/18 04:04:20;;;;;;;8.40;5.82;;;16.70;99.90;;;;;;5033057;28;20392;-63
2022/05/18 04:06:46;;;;;;;10.05;6.20;;;16.80;99.90;;;;;;5047748;28;20076;-64
2022/05/18 04:09:12;;;;;;;9.25;6.15;;;16.70;99.90;;;;;;5051174;28;20053;-63
2022/05/18 04:11:37;;;;;;;9.00;6.15;;;16.70;99.90;;;;;;5027807;28;21100;-64
2022/05/18 04:14:03;;;;;;;11.05;6.25;;;16.70;99.90;;;;;;5053634;28;20384;-63
2022/05/18 04:16:29;;;;;;;9.00;6.40;;;16.70;99.90;;;;;;5032150;28;20074;-62
2022/05/18 04:18:55;;;;;;;11.15;6.70;;;16.70;99.90;;;;;;5035658;28;20052;-64
2022/05/18 04:21:21;;;;;;;8.90;6.03;;;16.70;99.90;;;;;;5041523;28;20048;-64
2022/05/18 04:23:49;;;;;;;10.30;6.82;;;16.70;99.90;;;;;;5041650;28;20135;-64
2022/05/18 04:26:15;;;;;;;8.80;6.10;;;16.70;99.90;;;;;;5034484;28;20103;-64
2022/05/18 04:28:41;;;;;;;9.93;6.22;;;16.70;99.90;;;;;;5037921;28;20890;-64
2022/05/18 04:31:07;;;;;;;9.20;6.10;;;16.70;99.90;;;;;;5042113;28;20051;-63
2022/05/18 04:33:33;;;;;;;12.70;6.43;;;16.70;99.90;;;;;;5052762;28;20051;-63
2022/05/18 04:36:02;;;;;;;9.25;6.53;;;16.70;99.90;;;;;;5051147;28;20064;-64
2022/05/18 04:38:29;;;;;;;13.52;6.32;;;16.70;99.90;;;;;;5056765;28;20446;-63
2022/05/18 04:40:55;;;;;;;8.65;6.10;;;16.70;99.90;;;;;;5033423;28;20063;-64
2022/05/18 04:43:21;;;;;;;12.48;6.63;;;16.80;99.90;;;;;;5036110;28;20075;-64
2022/05/18 04:45:50;;;;;;;10.48;6.30;;;16.80;99.90;;;;;;5022662;28;20044;-64
2022/05/18 04:48:18;;;;;;;8.15;6.35;;;16.80;99.90;;;;;;5028000;28;20049;-64
2022/05/18 04:50:45;;;;;;;10.25;6.43;;;16.80;99.90;;;;;;5045973;28;20041;-64
2022/05/18 04:53:11;;;;;;;11.00;6.30;;;16.80;99.90;;;;;;5051809;28;20044;-63
2022/05/18 04:55:38;;;;;;;12.25;6.28;;;16.90;99.90;;;;;;5050678;28;20511;-64
2022/05/18 04:58:04;;;;;;;11.85;6.32;;;16.80;99.90;;;;;;5049007;28;20095;-63
2022/05/18 05:00:30;;;;;;;9.98;6.78;;;16.90;99.90;;;;;;5035911;28;20589;-64
2022/05/18 05:02:57;;;;;;;11.40;6.95;;;16.90;99.90;;;;;;5048087;28;20051;-63
2022/05/18 05:05:25;;;;;;;9.63;6.50;;;16.90;99.90;;;;;;5038167;28;20040;-64
2022/05/18 05:07:56;;;;;;;12.52;6.55;;;17.00;99.90;;;;;;5029134;28;20388;-64
2022/05/18 05:10:22;;;;;;;8.57;6.65;;;16.90;99.90;;;;;;5039386;28;20045;-64
2022/05/18 05:12:49;;;;;;;9.88;6.20;;;17.00;99.90;;;;;;5042857;28;20158;-63
2022/05/18 05:15:15;;;;;;;8.85;6.88;;;17.00;99.90;;;;;;5035301;28;20041;-64
2022/05/18 05:17:41;;;;;;;9.00;6.90;;;17.00;99.90;;;;;;5031811;28;20055;-64
2022/05/18 05:20:07;;;;;;;9.48;6.63;;;17.10;99.90;;;;;;5044021;28;20049;-64
2022/05/18 05:22:33;;;;;;;11.98;6.65;;;17.10;99.90;;;;;;5029000;28;20040;-63
2022/05/18 05:24:59;;;;;;;9.48;7.00;;;17.10;99.90;;;;;;5042859;28;20078;-64
2022/05/18 05:27:25;;;;;;;8.43;6.63;;;17.10;99.90;;;;;;5039898;28;20098;-64
2022/05/18 05:29:51;;;;;;;15.38;7.10;;;17.10;99.90;;;;;;5034804;28;20044;-64
2022/05/18 05:32:17;;;;;;;12.35;6.75;;;17.20;99.90;;;;;;5041883;28;20094;-64
2022/05/18 05:34:44;;;;;;;11.20;6.93;;;17.20;99.90;;;;;;5028537;28;20044;-64
2022/05/18 05:37:10;;;;;;;11.85;7.10;;;17.20;99.90;;;;;;5023809;28;20064;-64
2022/05/18 05:39:36;;;;;;;10.02;6.97;;;17.20;99.90;;;;;;5041851;28;20382;-63
2022/05/18 05:42:03;;;;;;;11.75;7.75;;;17.30;99.90;;;;;;5031709;28;20044;-64
2022/05/18 05:44:29;;;;;;;11.35;7.32;;;17.40;99.90;;;;;;5044178;28;20513;-64
2022/05/18 05:46:56;;;;;;;13.57;7.50;;;17.40;99.90;;;;;;5033889;28;20040;-64
2022/05/18 05:49:22;;;;;;;9.70;7.05;;;17.40;99.90;;;;;;5040369;28;20076;-64
2022/05/18 05:51:49;;;;;;;10.00;7.20;;;17.40;99.90;;;;;;5038955;28;20119;-64
2022/05/18 05:54:15;;;;;;;14.23;6.95;;;17.50;99.90;;;;;;5045738;28;20040;-64
2022/05/18 05:56:41;;;;;;;12.00;7.65;;;17.50;99.90;;;;;;4972486;28;20044;-63
2022/05/18 05:59:07;;;;;;;9.93;7.97;;;17.50;99.90;;;;;;5040417;28;20044;-63
2022/05/18 06:01:33;;;;;;;13.93;7.47;;;17.60;99.90;;;;;;5014458;28;20106;-64
2022/05/18 06:04:00;;;;;;;11.05;8.38;;;17.60;99.90;;;;;;5029304;28;20048;-64
2022/05/18 06:06:26;;;;;;;14.43;8.23;;;17.70;99.90;;;;;;5026321;28;20151;-64
2022/05/18 06:08:52;;;;;;;11.60;8.38;;;17.70;99.90;;;;;;5041069;28;20521;-64
2022/05/18 06:11:19;;;;;;;16.00;8.20;;;17.80;99.90;;;;;;5040740;28;20053;-63
2022/05/18 06:13:45;;;;;;;10.18;7.88;;;17.80;99.90;;;;;;5015110;28;20131;-63
2022/05/18 06:16:11;;;;;;;12.65;8.15;;;17.90;99.90;;;;;;5011512;28;20056;-63
2022/05/18 06:18:38;;;;;;;14.77;8.50;;;18.00;99.90;;;;;;5043157;28;22627;-64
2022/05/18 06:21:05;;;;;;;14.73;8.15;;;18.10;99.90;;;;;;5037781;28;20056;-64
2022/05/18 06:23:31;;;;;;;12.32;8.90;;;18.10;99.90;;;;;;5033238;28;20052;-64
2022/05/18 06:26:02;;;;;;;13.13;9.05;;;18.20;99.90;;;;;;5043916;28;20097;-63
2022/05/18 06:28:28;;;;;;;15.18;9.10;;;18.30;99.90;;;;;;5053964;28;20072;-63
2022/05/18 06:30:54;;;;;;;13.80;9.20;;;18.40;99.90;;;;;;5030440;28;20106;-64
2022/05/18 06:33:21;;;;;;;14.25;9.57;;;18.40;99.90;;;;;;5036423;28;20037;-64
2022/05/18 06:35:51;;;;;;;12.35;8.55;;;18.60;99.90;;;;;;5031323;28;20068;-64
2022/05/18 06:38:18;;;;;;;14.98;9.10;;;18.60;99.90;;;;;;5040152;28;20049;-64
2022/05/18 06:43:29;;;;;;;12.60;9.02;;;18.80;99.90;;;;;;5033293;28;20163;-64
2022/05/18 06:45:55;;;;;;;12.68;9.20;;;18.90;99.90;;;;;;5029634;28;20056;-64
2022/05/18 06:48:21;;;;;;;12.18;9.18;;;19.00;99.90;;;;;;5039915;28;25000;-64
2022/05/18 06:50:47;;;;;;;11.73;9.27;;;19.10;99.90;;;;;;5036320;28;20037;-64
2022/05/18 06:53:13;;;;;;;13.75;8.77;;;19.20;99.90;;;;;;5036290;28;20093;-64
2022/05/18 06:55:39;;;;;;;12.65;9.80;;;19.30;99.90;;;;;;5030300;28;20048;-64
2022/05/18 06:58:05;;;;;;;17.08;9.48;;;19.40;99.90;;;;;;5020678;28;20059;-64
2022/05/18 07:00:31;;;;;;;14.52;9.73;;;19.40;99.90;;;;;;5038056;28;20045;-64
2022/05/18 07:02:57;;;;;;;14.70;9.93;;;19.60;99.90;;;;;;5040487;28;20049;-64
2022/05/18 07:05:23;;;;;;;14.32;10.02;;;19.70;99.90;;;;;;5039981;28;20127;-64
2022/05/18 07:07:49;;;;;;;15.63;10.35;;;19.70;99.90;;;;;;5053249;28;20553;-64
2022/05/18 07:10:14;;;;;;;15.05;9.70;;;19.90;99.90;;;;;;5043857;28;20048;-64
2022/05/18 07:12:40;;;;;;;17.48;10.32;;;20.00;99.90;;;;;;5047536;28;20043;-64
2022/05/18 07:15:07;;;;;;;15.13;9.60;;;20.10;99.90;;;;;;5033502;28;20546;-64
2022/05/18 07:17:34;;;;;;;15.32;10.10;;;20.20;99.90;;;;;;5015783;28;20739;-64
2022/05/18 07:20:01;;;;;;;17.95;10.02;;;20.30;99.90;;;;;;5044877;28;20432;-64
2022/05/18 07:22:27;;;;;;;17.05;10.45;;;20.50;99.90;;;;;;5045674;28;20046;-64
2022/05/18 07:24:52;;;;;;;17.10;10.27;;;20.60;99.90;;;;;;5015750;28;20037;-64
2022/05/18 07:27:18;;;;;;;16.80;10.68;;;20.70;99.90;;;;;;5055427;28;20171;-64
2022/05/18 07:29:44;;;;;;;17.15;9.75;;;20.80;99.90;;;;;;5038331;28;20496;-64
2022/05/18 07:32:13;;;;;;;16.02;10.55;;;20.90;99.90;;;;;;5034091;28;20494;-64
2022/05/18 07:34:44;;;;;;;12.95;10.02;;;21.00;99.90;;;;;;5051491;28;20045;-64
2022/05/18 07:37:12;;;;;;;13.05;10.07;;;21.10;99.90;;;;;;5034206;28;20122;-64
2022/05/18 07:39:38;;;;;;;16.17;10.50;;;21.20;99.90;;;;;;5022520;28;20052;-64
2022/05/18 07:42:05;;;;;;;13.45;10.10;;;21.40;99.90;;;;;;5036591;28;20048;-64
2022/05/18 07:44:32;;;;;;;19.98;10.90;;;21.40;99.90;;;;;;5034466;28;20472;-64
2022/05/18 07:46:58;;;;;;;15.55;10.48;;;21.50;99.90;;;;;;5032076;28;20102;-64
2022/05/18 07:49:24;;;;;;;16.17;10.13;;;21.60;99.90;;;;;;5041128;28;20147;-64
2022/05/18 07:51:49;;;;;;;17.98;9.68;;;21.70;99.90;;;;;;5026009;28;20048;-64
2022/05/18 07:54:15;;;;;;;16.27;9.90;;;21.80;99.90;;;;;;5032004;28;20226;-64
2022/05/18 07:56:42;;;;;;;14.55;8.85;;;21.90;99.90;;;;;;5033964;28;20060;-64
2022/05/18 07:59:09;;;;;;;12.27;8.02;;;22.00;99.90;;;;;;5016708;28;20416;-64
2022/05/18 08:01:36;;;;;;;12.60;8.75;;;22.10;99.90;;;;;;5036928;28;20072;-64
2022/05/18 08:04:03;;;;;;;18.02;8.70;;;22.30;99.90;;;;;;5011177;28;20445;-64
2022/05/18 08:06:29;;;;;;;12.95;9.10;;;22.40;99.60;;;;;;5023799;28;20142;-64
2022/05/18 08:08:55;;;;;;;12.20;7.95;;;22.50;99.50;;;;;;5036045;28;20043;-64
2022/05/18 08:16:50;;;;;;;11.55;6.28;;;23.00;98.30;;;;;;5002040;28;20098;-64
2022/05/18 08:19:18;;;;;;;14.57;6.78;;;23.20;97.40;;;;;;5014343;28;21125;-64
2022/05/18 08:21:44;;;;;;;11.05;6.57;;;23.30;96.90;;;;;;5035290;28;20502;-64
2022/05/18 08:24:11;;;;;;;9.68;6.20;;;23.40;96.20;;;;;;5023353;28;20059;-64
2022/05/18 08:26:38;;;;;;;12.60;6.47;;;23.50;96.40;;;;;;5016830;28;20048;-64
2022/05/18 08:29:05;;;;;;;13.02;6.70;;;23.70;96.10;;;;;;5027532;28;20095;-64
2022/05/18 08:31:31;;;;;;;12.73;6.05;;;23.90;95.60;;;;;;4999475;28;20095;-64
2022/05/18 08:33:57;;;;;;;10.27;5.72;;;24.00;94.80;;;;;;5026376;28;20116;-64
2022/05/18 08:36:25;;;;;;;7.65;4.88;;;24.10;94.00;;;;;;5031493;28;20048;-64
2022/05/18 08:38:51;;;;;;;8.88;4.35;;;24.20;92.80;;;;;;5055743;28;20135;-64
2022/05/18 08:41:29;;;;;;;7.82;3.80;;;24.40;91.90;;;;;;5053706;28;20044;-64
2022/05/18 08:43:59;;;;;;;10.90;4.03;;;24.40;90.30;;;;;;5045640;28;20082;-64
2022/05/18 08:46:46;;;;;;;6.10;3.30;;;24.50;88.00;;;;;;5044295;28;20600;-64
2022/05/18 08:49:14;;;;;;;7.60;3.75;;;24.70;86.80;;;;;;5054937;28;20387;-64
2022/05/18 08:51:53;;;;;;;7.68;4.20;;;24.80;85.30;;;;;;5029674;28;20055;-64
2022/05/18 08:54:37;;;;;;;8.68;4.18;;;24.90;83.90;;;;;;5039264;28;20080;-64
2022/05/18 08:57:07;;;;;;;8.07;4.22;;;25.00;83.40;;;;;;5041199;28;20569;-64
2022/05/18 08:59:37;;;;;;;6.22;4.55;;;25.10;82.00;;;;;;5029307;28;20040;-64
2022/05/18 09:02:13;;;;;;;7.40;4.65;;;25.20;80.80;;;;;;5055493;28;20123;-64
2022/05/18 09:05:14;;;;;;;9.68;4.78;;;25.30;80.10;;;;;;5048428;28;20107;-64
2022/05/18 09:07:47;;;;;;;9.43;4.95;;;25.40;79.20;;;;;;5030035;28;20068;-64
2022/05/18 09:10:44;;;;;;;9.57;5.40;;;25.40;78.40;;;;;;5049382;28;20084;-64
2022/05/18 09:13:10;;;;;;;5.20;3.78;;;25.60;77.90;;;;;;5053362;28;20463;-64
2022/05/18 09:16:17;;;;;;;6.10;4.30;;;25.70;79.10;;;;;;5016970;28;20083;-64
2022/05/18 09:19:23;;;;;;;9.27;4.50;;;25.90;76.90;;;;;;5032040;28;20491;-64
2022/05/18 09:22:32;;;;;;;6.80;4.20;;;26.00;77.90;;;;;;5049164;28;20168;-65
2022/05/18 09:25:20;;;;;;;10.85;4.78;;;26.20;77.50;;;;;;5022825;28;20057;-65
2022/05/18 09:28:26;;;;;;;10.05;4.80;;;26.30;75.90;;;;;;5042991;28;20521;-65
2022/05/18 09:31:37;;;;;;;12.82;4.40;;;26.40;75.20;;;;;;5048338;28;20119;-64
2022/05/18 09:34:36;;;;;;;6.82;4.07;;;26.50;75.10;;;;;;5008616;28;20040;-64
2022/05/18 09:37:21;;;;;;;6.00;4.05;;;26.60;74.20;;;;;;5039423;28;20151;-64
2022/05/18 09:40:01;;;;;;;9.07;5.28;;;26.80;73.00;;;;;;5045709;28;20053;-64
2022/05/18 09:42:32;;;;;;;7.90;5.20;;;26.90;71.70;;;;;;5049566;28;20041;-65
2022/05/18 09:45:25;;;;;;;8.98;4.80;;;27.00;71.30;;;;;;5057287;28;20044;-64
2022/05/18 09:47:59;;;;;;;11.23;5.50;;;27.10;70.60;;;;;;5048024;28;20410;-64
2022/05/18 09:50:26;;;;;;;7.68;5.15;;;27.20;70.20;;;;;;5033382;28;20036;-65
2022/05/18 09:52:53;;;;;;;9.95;4.97;;;27.30;69.10;;;;;;5035809;28;20041;-65
2022/05/18 09:55:25;;;;;;;11.57;5.57;;;27.30;70.00;;;;;;5046451;28;20475;-66
2022/05/18 09:57:58;;;;;;;10.27;5.53;;;27.30;69.30;;;;;;5036273;28;20051;-65
2022/05/18 10:00:27;;;;;;;15.65;6.22;;;27.40;70.00;;;;;;5048918;28;20045;-65
2022/05/18 10:08:31;;;;;;;7.88;5.60;;;27.40;69.40;;;;;;5054302;28;20116;-65
2022/05/18 10:11:12;;;;;;;10.02;5.60;;;27.50;69.20;;;;;;5043892;28;20493;-65
2022/05/18 10:13:54;;;;;;;12.18;5.10;;;27.70;68.70;;;;;;5045197;28;20052;-65
2022/05/18 10:16:46;;;;;;;8.20;5.07;;;28.00;68.70;;;;;;5020879;28;20056;-65
2022/05/18 10:19:29;;;;;;;7.53;4.68;;;28.10;67.30;;;;;;5045231;28;20494;-65
2022/05/18 10:22:01;;;;;;;11.93;5.78;;;28.30;65.80;;;;;;5050187;28;20048;-65
2022/05/18 10:24:45;;;;;;;12.30;6.60;;;28.40;66.00;;;;;;5045688;28;20525;-65
2022/05/18 10:27:13;;;;;;;15.82;7.53;;;28.60;65.60;;;;;;5039727;28;20607;-65
2022/05/18 10:29:39;;;;;;;12.65;8.02;;;28.60;65.90;;;;;;5040642;28;20064;-66
2022/05/18 10:32:23;;;;;;;11.75;7.97;;;28.60;65.90;;;;;;5040913;28;20048;-65
2022/05/18 10:34:52;;;;;;;20.05;7.75;;;28.70;65.60;;;;;;5040529;28;20055;-66
2022/05/18 10:37:31;;;;;;;13.23;7.90;;;28.80;66.20;;;;;;5033614;28;20063;-65
2022/05/18 10:40:02;;;;;;;12.63;7.82;;;29.00;65.00;;;;;;5049715;28;21254;-65
2022/05/18 10:42:31;;;;;;;13.35;8.13;;;29.00;64.30;;;;;;5029785;28;20105;-65
2022/05/18 10:45:01;;;;;;;10.30;7.18;;;29.10;63.70;;;;;;5045596;28;20076;-65
2022/05/18 10:47:32;;;;;;;10.98;7.03;;;29.10;64.30;;;;;;5026810;28;20446;-65
2022/05/18 10:50:23;;;;;;;10.90;7.00;;;29.20;64.20;;;;;;5043840;28;20045;-65
2022/05/18 10:52:52;;;;;;;11.88;7.57;;;29.30;65.80;;;;;;5050117;28;20499;-65
2022/05/18 10:55:20;;;;;;;14.18;9.18;;;29.50;65.20;;;;;;5050691;28;20106;-65
2022/05/18 10:58:22;;;;;;;14.25;10.40;;;29.70;64.60;;;;;;5049607;28;20037;-65
2022/05/18 11:00:52;;;;;;;18.90;10.18;;;29.70;64.20;;;;;;5051609;28;20481;-65
2022/05/18 11:03:30;;;;;;;12.60;9.65;;;29.70;63.70;;;;;;5055553;28;20048;-65
2022/05/18 11:06:06;;;;;;;15.27;8.98;;;29.70;64.60;;;;;;5043805;28;20045;-65
2022/05/18 11:08:32;;;;;;;17.85;9.60;;;29.80;64.40;;;;;;5053036;28;20106;-65
2022/05/18 11:11:21;;;;;;;13.85;8.30;;;29.90;63.50;;;;;;5052724;28;20448;-65
2022/05/18 11:14:09;;;;;;;14.63;8.27;;;29.90;63.40;;;;;;5037432;28;20045;-66
2022/05/18 11:16:46;;;;;;;13.38;8.65;;;30.00;63.10;;;;;;5051741;28;20040;-65
2022/05/18 11:19:24;;;;;;;14.57;8.65;;;30.10;63.20;;;;;;5051651;28;20082;-66
2022/05/18 11:22:23;;;;;;;12.38;7.47;;;30.30;62.80;;;;;;5047148;28;20054;-66
2022/05/18 11:25:21;;;;;;;12.85;7.07;;;30.40;63.70;;;;;;5053041;28;20123;-66
2022/05/18 11:28:31;;;;;;;17.08;8.48;;;30.60;63.80;;;;;;5046940;28;20049;-66
2022/05/18 11:31:09;;;;;;;16.08;8.48;;;30.80;62.10;;;;;;5028997;28;20048;-66
2022/05/18 11:33:43;;;;;;;11.23;8.48;;;30.90;62.40;;;;;;5050763;28;20115;-66
2022/05/18 11:36:08;;;;;;;11.77;8.57;;;31.10;61.90;;;;;;5037766;28;20056;-66
2022/05/18 11:38:48;;;;;;;15.40;8.77;;;31.20;62.20;;;;;;5032061;28;20044;-66
2022/05/18 11:41:32;;;;;;;18.60;8.63;;;31.20;61.30;;;;;;5033109;28;20052;-65
2022/05/18 11:44:09;;;;;;;12.77;8.07;;;31.10;61.30;;;;;;5030521;28;20210;-66
2022/05/18 11:46:54;;;;;;;15.70;7.55;;;30.90;60.40;;;;;;5013771;28;20052;-66
2022/05/18 11:49:20;;;;;;;10.32;6.60;;;30.70;60.60;;;;;;5028612;28;20052;-66
2022/05/18 11:52:12;;;;;;;13.18;8.50;;;30.70;61.50;;;;;;5036404;28;20482;-66
2022/05/18 11:55:09;;;;;;;11.75;8.75;;;30.80;60.90;;;;;;5034484;28;20086;-66
2022/05/18 11:58:07;;;;;;;13.70;8.98;;;30.80;60.00;;;;;;5052066;28;20079;-62
2022/05/18 12:01:05;;;;;;;14.90;8.57;;;31.00;60.90;;;;;;5046394;28;20045;-65
2022/05/18 12:03:59;;;;;;;14.35;8.13;;;31.20;60.30;;;;;;5044940;28;20076;-65
2022/05/18 12:06:33;;;;;;;15.05;7.90;;;31.30;59.90;;;;;;5049774;28;20048;-65
2022/05/18 12:09:24;;;;;;;12.25;7.25;;;31.40;59.30;;;;;;5039046;28;20084;-66
2022/05/18 12:11:59;;;;;;;10.10;6.40;;;31.50;60.00;;;;;;5048505;28;20081;-64
2022/05/18 12:14:36;;;;;;;12.57;6.75;;;31.60;59.80;;;;;;5044367;28;20331;-66
2022/05/18 12:17:16;;;;;;;13.73;6.55;;;31.80;59.30;;;;;;5052142;28;20049;-64
2022/05/18 12:19:54;;;;;;;9.07;5.88;;;31.80;58.40;;;;;;5051790;28;20051;-66
2022/05/18 12:22:35;;;;;;;7.53;5.00;;;31.70;58.50;;;;;;5044990;28;20081;-68
2022/05/18 12:25:03;;;;;;;12.25;6.18;;;31.60;59.80;;;;;;5048476;28;20094;-66
2022/05/18 12:27:30;;;;;;;12.05;6.18;;;31.70;59.20;;;;;;5047531;28;20064;-68
2022/05/18 12:29:58;;;;;;;9.35;5.68;;;31.60;59.10;;;;;;5045438;28;20546;-66
2022/05/18 12:32:25;;;;;;;10.02;5.75;;;31.60;59.70;;;;;;5049900;28;20051;-67
2022/05/18 12:35:32;;;;;;;13.07;5.82;;;31.50;58.90;;;;;;5053868;28;20057;-67
2022/05/18 12:37:58;;;;;;;9.10;5.68;;;31.40;58.80;;;;;;5046688;28;20049;-67
2022/05/18 12:40:24;;;;;;;13.07;6.63;;;31.10;59.50;;;;;;5046646;28;20067;-67
2022/05/18 12:43:13;;;;;;;9.43;5.40;;;30.90;59.40;;;;;;5047837;28;21262;-67
2022/05/18 12:45:46;;;;;;;9.57;6.20;;;30.60;59.60;;;;;;5051063;28;20079;-65
2022/05/18 12:48:46;;;;;;;9.50;6.97;;;30.30;60.00;;;;;;5048331;28;20041;-64
2022/05/18 12:51:52;;;;;;;11.15;7.35;;;30.10;60.60;;;;;;4989019;28;20102;-65
2022/05/18 12:54:30;;;;;;;17.52;7.93;;;29.90;62.40;;;;;;5043664;28;20041;-64
2022/05/18 12:57:05;;;;;;;14.43;8.73;;;29.90;62.90;;;;;;5051212;28;20048;-65
2022/05/18 12:59:44;;;;;;;12.43;8.65;;;30.00;63.20;;;;;;5053788;28;20055;-64
2022/05/18 13:02:32;;;;;;;18.02;9.82;;;30.10;63.30;;;;;;5035274;28;20391;-64
2022/05/18 13:04:58;;;;;;;17.95;9.68;;;30.20;64.30;;;;;;5045420;28;20051;-64
2022/05/18 13:07:32;;;;;;;28.30;15.35;;;30.10;63.90;;;;;;5044956;28;20041;-65
2022/05/18 13:10:28;;;;;;;23.23;15.65;;;29.90;64.20;;;;;;5030273;28;20044;-65
2022/05/18 13:13:04;;;;;;;25.55;16.63;;;29.60;63.60;;;;;;5045668;28;20418;-64
2022/05/18 13:15:52;;;;;;;24.95;14.82;;;29.20;64.20;;;;;;5047367;28;20063;-64
2022/05/18 13:18:32;;;;;;;25.42;15.95;;;28.90;64.70;;;;;;5042949;28;20348;-65
2022/05/18 13:21:07;;;;;;;28.73;16.38;;;28.60;65.60;;;;;;5028645;28;20502;-65